sensor_id;sensor_type;location;lat;lon;timestamp;P1;durP1;ratioP1;P2;durP2;ratioP2
2784;SDS011;57944;48.722;9.316;2024-02-16T00:00:34;8.97;;;6.90;;
2784;SDS011;57944;48.722;9.316;2024-02-16T00:03:04;9.97;;;6.93;;
2784;SDS011;57944;48.722;9.316;2024-02-16T00:05:37;7.87;;;7.03;;
2784;SDS011;57944;48.722;9.316;2024-02-16T00:08:09;10.13;;;7.10;;
2784;SDS011;57944;48.722;9.316;2024-02-16T00:10:39;12.47;;;7.93;;
2784;SDS011;57944;48.722;9.316;2024-02-16T00:13:11;15.17;;;8.30;;
2784;SDS011;57944;48.722;9.316;2024-02-16T00:15:41;12.07;;;8.23;;
2784;SDS011;57944;48.722;9.316;2024-02-16T00:18:12;11.00;;;7.70;;
2784;SDS011;57944;48.722;9.316;2024-02-16T00:20:45;14.73;;;8.87;;
2784;SDS011;57944;48.722;9.316;2024-02-16T00:23:16;14.23;;;8.73;;
2784;SDS011;57944;48.722;9.316;2024-02-16T00:25:49;11.67;;;7.83;;
2784;SDS011;57944;48.722;9.316;2024-02-16T00:28:19;13.33;;;8.07;;
2784;SDS011;57944;48.722;9.316;2024-02-16T00:30:50;12.60;;;8.87;;
2784;SDS011;57944;48.722;9.316;2024-02-16T00:33:20;13.57;;;9.33;;
2784;SDS011;57944;48.722;9.316;2024-02-16T00:35:54;14.93;;;8.13;;
2784;SDS011;57944;48.722;9.316;2024-02-16T00:38:24;13.33;;;8.73;;
2784;SDS011;57944;48.722;9.316;2024-02-16T00:40:55;17.17;;;9.17;;
2784;SDS011;57944;48.722;9.316;2024-02-16T00:43:25;13.70;;;8.60;;
2784;SDS011;57944;48.722;9.316;2024-02-16T00:45:56;12.13;;;9.10;;
2784;SDS011;57944;48.722;9.316;2024-02-16T00:48:27;13.97;;;8.70;;
2784;SDS011;57944;48.722;9.316;2024-02-16T00:51:00;12.00;;;8.33;;
2784;SDS011;57944;48.722;9.316;2024-02-16T00:53:30;12.97;;;8.83;;
2784;SDS011;57944;48.722;9.316;2024-02-16T00:56:01;16.33;;;9.63;;
2784;SDS011;57944;48.722;9.316;2024-02-16T00:58:33;15.63;;;9.13;;
2784;SDS011;57944;48.722;9.316;2024-02-16T01:01:04;12.17;;;8.20;;
2784;SDS011;57944;48.722;9.316;2024-02-16T01:03:37;13.17;;;8.27;;
2784;SDS011;57944;48.722;9.316;2024-02-16T01:06:10;13.07;;;9.20;;
2784;SDS011;57944;48.722;9.316;2024-02-16T01:08:41;11.53;;;8.33;;
2784;SDS011;57944;48.722;9.316;2024-02-16T01:11:13;19.80;;;8.90;;
2784;SDS011;57944;48.722;9.316;2024-02-16T01:13:43;13.87;;;8.97;;
2784;SDS011;57944;48.722;9.316;2024-02-16T01:16:16;15.93;;;9.60;;
2784;SDS011;57944;48.722;9.316;2024-02-16T01:18:46;14.03;;;9.10;;
2784;SDS011;57944;48.722;9.316;2024-02-16T01:21:20;10.93;;;9.53;;
2784;SDS011;57944;48.722;9.316;2024-02-16T01:23:51;12.77;;;7.67;;
2784;SDS011;57944;48.722;9.316;2024-02-16T01:26:21;11.60;;;7.97;;
2784;SDS011;57944;48.722;9.316;2024-02-16T01:28:52;11.33;;;8.00;;
2784;SDS011;57944;48.722;9.316;2024-02-16T01:31:22;12.63;;;8.30;;
2784;SDS011;57944;48.722;9.316;2024-02-16T01:33:53;9.40;;;7.20;;
2784;SDS011;57944;48.722;9.316;2024-02-16T01:36:26;11.20;;;8.27;;
2784;SDS011;57944;48.722;9.316;2024-02-16T01:38:57;12.33;;;8.10;;
2784;SDS011;57944;48.722;9.316;2024-02-16T01:41:28;11.37;;;8.63;;
2784;SDS011;57944;48.722;9.316;2024-02-16T01:43:58;14.93;;;9.50;;
2784;SDS011;57944;48.722;9.316;2024-02-16T01:46:29;13.07;;;8.80;;
2784;SDS011;57944;48.722;9.316;2024-02-16T01:48:59;10.93;;;8.97;;
2784;SDS011;57944;48.722;9.316;2024-02-16T01:51:33;13.63;;;8.50;;
2784;SDS011;57944;48.722;9.316;2024-02-16T01:54:04;12.53;;;8.03;;
2784;SDS011;57944;48.722;9.316;2024-02-16T01:56:35;14.40;;;8.63;;
2784;SDS011;57944;48.722;9.316;2024-02-16T01:59:05;11.80;;;8.10;;
2784;SDS011;57944;48.722;9.316;2024-02-16T02:01:36;14.90;;;9.47;;
2784;SDS011;57944;48.722;9.316;2024-02-16T02:04:06;21.50;;;9.40;;
2784;SDS011;57944;48.722;9.316;2024-02-16T02:06:40;16.60;;;9.10;;
2784;SDS011;57944;48.722;9.316;2024-02-16T02:09:11;12.37;;;8.60;;
2784;SDS011;57944;48.722;9.316;2024-02-16T02:11:41;17.23;;;8.83;;
2784;SDS011;57944;48.722;9.316;2024-02-16T02:14:13;13.50;;;8.40;;
2784;SDS011;57944;48.722;9.316;2024-02-16T02:16:43;15.33;;;9.73;;
2784;SDS011;57944;48.722;9.316;2024-02-16T02:19:24;13.90;;;9.00;;
2784;SDS011;57944;48.722;9.316;2024-02-16T02:21:58;15.33;;;8.93;;
2784;SDS011;57944;48.722;9.316;2024-02-16T02:24:31;14.30;;;9.10;;
2784;SDS011;57944;48.722;9.316;2024-02-16T02:27:01;15.43;;;7.07;;
2784;SDS011;57944;48.722;9.316;2024-02-16T02:29:32;13.43;;;8.10;;
2784;SDS011;57944;48.722;9.316;2024-02-16T02:32:03;11.27;;;7.67;;
2784;SDS011;57944;48.722;9.316;2024-02-16T02:34:34;10.30;;;7.47;;
2784;SDS011;57944;48.722;9.316;2024-02-16T02:37:05;12.80;;;8.30;;
2784;SDS011;57944;48.722;9.316;2024-02-16T02:39:38;11.47;;;7.20;;
2784;SDS011;57944;48.722;9.316;2024-02-16T02:42:10;13.27;;;8.43;;
2784;SDS011;57944;48.722;9.316;2024-02-16T02:44:41;13.00;;;8.60;;
2784;SDS011;57944;48.722;9.316;2024-02-16T02:47:16;14.40;;;7.93;;
2784;SDS011;57944;48.722;9.316;2024-02-16T02:49:47;11.50;;;7.67;;
2784;SDS011;57944;48.722;9.316;2024-02-16T02:52:19;13.00;;;7.30;;
2784;SDS011;57944;48.722;9.316;2024-02-16T02:54:52;9.60;;;6.97;;
2784;SDS011;57944;48.722;9.316;2024-02-16T02:57:23;11.53;;;7.97;;
2784;SDS011;57944;48.722;9.316;2024-02-16T02:59:53;13.40;;;7.40;;
2784;SDS011;57944;48.722;9.316;2024-02-16T03:02:38;12.23;;;7.87;;
2784;SDS011;57944;48.722;9.316;2024-02-16T03:05:10;14.97;;;9.40;;
2784;SDS011;57944;48.722;9.316;2024-02-16T03:07:41;12.80;;;8.73;;
2784;SDS011;57944;48.722;9.316;2024-02-16T03:10:14;11.10;;;7.33;;
2784;SDS011;57944;48.722;9.316;2024-02-16T03:12:48;11.80;;;8.40;;
2784;SDS011;57944;48.722;9.316;2024-02-16T03:15:20;8.97;;;7.90;;
2784;SDS011;57944;48.722;9.316;2024-02-16T03:17:51;11.93;;;7.83;;
2784;SDS011;57944;48.722;9.316;2024-02-16T03:20:21;15.43;;;9.47;;
2784;SDS011;57944;48.722;9.316;2024-02-16T03:22:52;16.43;;;8.50;;
2784;SDS011;57944;48.722;9.316;2024-02-16T03:25:25;10.57;;;7.33;;
2784;SDS011;57944;48.722;9.316;2024-02-16T03:27:56;14.07;;;7.50;;
2784;SDS011;57944;48.722;9.316;2024-02-16T03:30:27;13.20;;;9.43;;
2784;SDS011;57944;48.722;9.316;2024-02-16T03:32:58;13.93;;;8.03;;
2784;SDS011;57944;48.722;9.316;2024-02-16T03:35:29;15.70;;;8.73;;
2784;SDS011;57944;48.722;9.316;2024-02-16T03:37:59;12.00;;;8.43;;
2784;SDS011;57944;48.722;9.316;2024-02-16T03:40:33;9.67;;;8.37;;
2784;SDS011;57944;48.722;9.316;2024-02-16T03:43:03;12.37;;;8.30;;
2784;SDS011;57944;48.722;9.316;2024-02-16T03:45:34;13.97;;;8.97;;
2784;SDS011;57944;48.722;9.316;2024-02-16T03:48:05;11.63;;;8.13;;
2784;SDS011;57944;48.722;9.316;2024-02-16T03:50:36;10.73;;;8.77;;
2784;SDS011;57944;48.722;9.316;2024-02-16T03:53:07;14.30;;;9.40;;
2784;SDS011;57944;48.722;9.316;2024-02-16T03:55:40;10.60;;;7.53;;
2784;SDS011;57944;48.722;9.316;2024-02-16T03:58:10;13.87;;;8.40;;
2784;SDS011;57944;48.722;9.316;2024-02-16T04:00:41;14.13;;;8.67;;
2784;SDS011;57944;48.722;9.316;2024-02-16T04:03:12;14.70;;;8.33;;
2784;SDS011;57944;48.722;9.316;2024-02-16T04:05:43;14.40;;;8.40;;
2784;SDS011;57944;48.722;9.316;2024-02-16T04:08:14;12.53;;;8.17;;
2784;SDS011;57944;48.722;9.316;2024-02-16T04:10:48;14.90;;;8.50;;
2784;SDS011;57944;48.722;9.316;2024-02-16T04:13:18;15.97;;;8.87;;
2784;SDS011;57944;48.722;9.316;2024-02-16T04:15:49;14.37;;;8.63;;
2784;SDS011;57944;48.722;9.316;2024-02-16T04:18:21;11.47;;;8.93;;
2784;SDS011;57944;48.722;9.316;2024-02-16T04:20:51;13.50;;;9.00;;
2784;SDS011;57944;48.722;9.316;2024-02-16T04:23:22;11.10;;;7.57;;
2784;SDS011;57944;48.722;9.316;2024-02-16T04:25:55;14.30;;;9.60;;
2784;SDS011;57944;48.722;9.316;2024-02-16T04:28:26;11.43;;;8.23;;
2784;SDS011;57944;48.722;9.316;2024-02-16T04:30:57;8.90;;;7.53;;
2784;SDS011;57944;48.722;9.316;2024-02-16T04:33:27;14.67;;;9.00;;
2784;SDS011;57944;48.722;9.316;2024-02-16T04:35:58;10.57;;;8.67;;
2784;SDS011;57944;48.722;9.316;2024-02-16T04:38:29;14.60;;;9.40;;
2784;SDS011;57944;48.722;9.316;2024-02-16T04:41:04;14.10;;;10.00;;
2784;SDS011;57944;48.722;9.316;2024-02-16T04:43:34;13.70;;;9.70;;
2784;SDS011;57944;48.722;9.316;2024-02-16T04:46:05;13.00;;;9.10;;
2784;SDS011;57944;48.722;9.316;2024-02-16T04:48:36;12.23;;;9.60;;
2784;SDS011;57944;48.722;9.316;2024-02-16T04:51:07;12.37;;;8.93;;
2784;SDS011;57944;48.722;9.316;2024-02-16T04:53:37;12.37;;;8.43;;
2784;SDS011;57944;48.722;9.316;2024-02-16T04:56:10;13.30;;;9.63;;
2784;SDS011;57944;48.722;9.316;2024-02-16T04:58:41;12.10;;;8.20;;
2784;SDS011;57944;48.722;9.316;2024-02-16T05:01:12;17.20;;;9.73;;
2784;SDS011;57944;48.722;9.316;2024-02-16T05:03:43;13.60;;;9.57;;
2784;SDS011;57944;48.722;9.316;2024-02-16T05:06:14;12.50;;;8.77;;
2784;SDS011;57944;48.722;9.316;2024-02-16T05:08:44;10.07;;;7.40;;
2784;SDS011;57944;48.722;9.316;2024-02-16T05:11:18;14.03;;;9.10;;
2784;SDS011;57944;48.722;9.316;2024-02-16T05:13:51;11.90;;;8.43;;
2784;SDS011;57944;48.722;9.316;2024-02-16T05:16:21;14.83;;;8.10;;
2784;SDS011;57944;48.722;9.316;2024-02-16T05:18:52;12.83;;;8.90;;
2784;SDS011;57944;48.722;9.316;2024-02-16T05:21:24;13.10;;;8.03;;
2784;SDS011;57944;48.722;9.316;2024-02-16T05:23:55;12.80;;;6.97;;
2784;SDS011;57944;48.722;9.316;2024-02-16T05:26:28;11.80;;;7.50;;
2784;SDS011;57944;48.722;9.316;2024-02-16T05:28:59;10.80;;;7.03;;
2784;SDS011;57944;48.722;9.316;2024-02-16T05:31:29;8.90;;;5.93;;
2784;SDS011;57944;48.722;9.316;2024-02-16T05:34:00;13.17;;;7.13;;
2784;SDS011;57944;48.722;9.316;2024-02-16T05:36:30;7.97;;;7.17;;
2784;SDS011;57944;48.722;9.316;2024-02-16T05:39:03;10.00;;;6.83;;
2784;SDS011;57944;48.722;9.316;2024-02-16T05:41:50;10.77;;;7.03;;
2784;SDS011;57944;48.722;9.316;2024-02-16T05:44:21;10.50;;;6.47;;
2784;SDS011;57944;48.722;9.316;2024-02-16T05:46:51;12.70;;;7.90;;
2784;SDS011;57944;48.722;9.316;2024-02-16T05:49:22;11.87;;;7.40;;
2784;SDS011;57944;48.722;9.316;2024-02-16T05:51:53;10.50;;;7.10;;
2784;SDS011;57944;48.722;9.316;2024-02-16T05:54:41;12.90;;;7.67;;
2784;SDS011;57944;48.722;9.316;2024-02-16T05:57:15;10.80;;;6.50;;
2784;SDS011;57944;48.722;9.316;2024-02-16T05:59:46;9.97;;;6.97;;
2784;SDS011;57944;48.722;9.316;2024-02-16T06:02:18;9.33;;;7.37;;
2784;SDS011;57944;48.722;9.316;2024-02-16T06:04:52;12.23;;;7.57;;
2784;SDS011;57944;48.722;9.316;2024-02-16T06:07:23;9.43;;;6.70;;
2784;SDS011;57944;48.722;9.316;2024-02-16T06:09:54;10.37;;;7.03;;
2784;SDS011;57944;48.722;9.316;2024-02-16T06:12:27;11.77;;;6.60;;
2784;SDS011;57944;48.722;9.316;2024-02-16T06:14:58;14.23;;;6.87;;
2784;SDS011;57944;48.722;9.316;2024-02-16T06:17:29;10.90;;;5.77;;
2784;SDS011;57944;48.722;9.316;2024-02-16T06:20:00;11.73;;;6.43;;
2784;SDS011;57944;48.722;9.316;2024-02-16T06:22:31;12.33;;;6.90;;
2784;SDS011;57944;48.722;9.316;2024-02-16T06:25:02;9.70;;;7.67;;
2784;SDS011;57944;48.722;9.316;2024-02-16T06:27:35;11.20;;;6.50;;
2784;SDS011;57944;48.722;9.316;2024-02-16T06:30:07;13.87;;;7.70;;
2784;SDS011;57944;48.722;9.316;2024-02-16T06:32:40;11.00;;;7.73;;
2784;SDS011;57944;48.722;9.316;2024-02-16T06:35:11;10.80;;;7.47;;
2784;SDS011;57944;48.722;9.316;2024-02-16T06:37:42;10.47;;;7.20;;
2784;SDS011;57944;48.722;9.316;2024-02-16T06:40:12;11.43;;;7.90;;
2784;SDS011;57944;48.722;9.316;2024-02-16T06:42:46;15.33;;;8.63;;
2784;SDS011;57944;48.722;9.316;2024-02-16T06:45:17;14.63;;;8.80;;
2784;SDS011;57944;48.722;9.316;2024-02-16T06:47:48;8.57;;;6.60;;
2784;SDS011;57944;48.722;9.316;2024-02-16T06:50:19;11.87;;;6.57;;
2784;SDS011;57944;48.722;9.316;2024-02-16T06:52:49;11.60;;;6.50;;
2784;SDS011;57944;48.722;9.316;2024-02-16T06:55:22;10.60;;;7.30;;
2784;SDS011;57944;48.722;9.316;2024-02-16T06:57:55;8.70;;;6.37;;
2784;SDS011;57944;48.722;9.316;2024-02-16T07:00:26;8.43;;;6.20;;
2784;SDS011;57944;48.722;9.316;2024-02-16T07:02:56;17.43;;;7.47;;
2784;SDS011;57944;48.722;9.316;2024-02-16T07:05:28;12.30;;;7.73;;
2784;SDS011;57944;48.722;9.316;2024-02-16T07:08:03;12.67;;;7.07;;
2784;SDS011;57944;48.722;9.316;2024-02-16T07:10:35;13.63;;;8.00;;
2784;SDS011;57944;48.722;9.316;2024-02-16T07:13:08;13.30;;;7.13;;
2784;SDS011;57944;48.722;9.316;2024-02-16T07:15:39;9.67;;;7.60;;
2784;SDS011;57944;48.722;9.316;2024-02-16T07:18:09;18.70;;;8.27;;
2784;SDS011;57944;48.722;9.316;2024-02-16T07:20:41;9.03;;;7.13;;
2784;SDS011;57944;48.722;9.316;2024-02-16T07:23:15;14.37;;;6.90;;
2784;SDS011;57944;48.722;9.316;2024-02-16T07:25:46;11.13;;;7.00;;
2784;SDS011;57944;48.722;9.316;2024-02-16T07:28:20;16.37;;;7.30;;
2784;SDS011;57944;48.722;9.316;2024-02-16T07:30:51;14.80;;;8.67;;
2784;SDS011;57944;48.722;9.316;2024-02-16T07:33:19;10.63;;;7.17;;
2784;SDS011;57944;48.722;9.316;2024-02-16T07:35:51;13.73;;;8.97;;
2784;SDS011;57944;48.722;9.316;2024-02-16T07:38:22;15.70;;;7.80;;
2784;SDS011;57944;48.722;9.316;2024-02-16T07:40:55;13.60;;;7.70;;
2784;SDS011;57944;48.722;9.316;2024-02-16T07:43:31;11.43;;;8.30;;
2784;SDS011;57944;48.722;9.316;2024-02-16T07:46:01;11.43;;;8.33;;
2784;SDS011;57944;48.722;9.316;2024-02-16T07:48:34;19.70;;;9.87;;
2784;SDS011;57944;48.722;9.316;2024-02-16T07:51:05;13.30;;;9.07;;
2784;SDS011;57944;48.722;9.316;2024-02-16T07:53:36;11.50;;;7.60;;
2784;SDS011;57944;48.722;9.316;2024-02-16T07:56:08;12.03;;;7.73;;
2784;SDS011;57944;48.722;9.316;2024-02-16T07:58:43;16.97;;;10.40;;
2784;SDS011;57944;48.722;9.316;2024-02-16T08:01:14;13.30;;;8.90;;
2784;SDS011;57944;48.722;9.316;2024-02-16T08:03:44;12.40;;;8.17;;
2784;SDS011;57944;48.722;9.316;2024-02-16T08:06:15;12.50;;;8.77;;
2784;SDS011;57944;48.722;9.316;2024-02-16T08:08:48;15.23;;;9.33;;
2784;SDS011;57944;48.722;9.316;2024-02-16T08:11:18;11.40;;;8.83;;
2784;SDS011;57944;48.722;9.316;2024-02-16T08:13:52;10.23;;;7.00;;
2784;SDS011;57944;48.722;9.316;2024-02-16T08:16:27;12.70;;;9.13;;
2784;SDS011;57944;48.722;9.316;2024-02-16T08:18:57;14.73;;;10.20;;
2784;SDS011;57944;48.722;9.316;2024-02-16T08:21:29;11.80;;;8.30;;
2784;SDS011;57944;48.722;9.316;2024-02-16T08:23:59;9.53;;;7.50;;
2784;SDS011;57944;48.722;9.316;2024-02-16T08:26:30;9.63;;;6.77;;
2784;SDS011;57944;48.722;9.316;2024-02-16T08:29:03;9.60;;;6.40;;
2784;SDS011;57944;48.722;9.316;2024-02-16T08:31:34;11.50;;;8.17;;
2784;SDS011;57944;48.722;9.316;2024-02-16T08:34:04;13.60;;;7.67;;
2784;SDS011;57944;48.722;9.316;2024-02-16T08:36:37;10.57;;;8.03;;
2784;SDS011;57944;48.722;9.316;2024-02-16T08:39:07;14.90;;;9.70;;
2784;SDS011;57944;48.722;9.316;2024-02-16T08:41:38;11.40;;;7.63;;
2784;SDS011;57944;48.722;9.316;2024-02-16T08:44:13;14.90;;;8.73;;
2784;SDS011;57944;48.722;9.316;2024-02-16T08:46:45;21.50;;;8.23;;
2784;SDS011;57944;48.722;9.316;2024-02-16T08:49:17;39.60;;;13.17;;
2784;SDS011;57944;48.722;9.316;2024-02-16T08:51:48;40.90;;;11.70;;
2784;SDS011;57944;48.722;9.316;2024-02-16T08:54:18;15.00;;;9.00;;
2784;SDS011;57944;48.722;9.316;2024-02-16T08:56:49;16.00;;;7.83;;
2784;SDS011;57944;48.722;9.316;2024-02-16T08:59:22;19.70;;;10.63;;
2784;SDS011;57944;48.722;9.316;2024-02-16T09:01:53;19.30;;;10.27;;
2784;SDS011;57944;48.722;9.316;2024-02-16T09:04:25;18.90;;;9.80;;
2784;SDS011;57944;48.722;9.316;2024-02-16T09:06:56;20.67;;;8.70;;
2784;SDS011;57944;48.722;9.316;2024-02-16T09:09:26;18.07;;;8.37;;
2784;SDS011;57944;48.722;9.316;2024-02-16T09:11:57;18.93;;;10.30;;
2784;SDS011;57944;48.722;9.316;2024-02-16T09:14:31;17.80;;;8.03;;
2784;SDS011;57944;48.722;9.316;2024-02-16T09:17:02;11.50;;;6.23;;
2784;SDS011;57944;48.722;9.316;2024-02-16T09:19:32;9.77;;;6.30;;
2784;SDS011;57944;48.722;9.316;2024-02-16T09:22:03;8.60;;;5.90;;
2784;SDS011;57944;48.722;9.316;2024-02-16T09:24:34;8.63;;;5.70;;
2784;SDS011;57944;48.722;9.316;2024-02-16T09:27:04;9.60;;;7.20;;
2784;SDS011;57944;48.722;9.316;2024-02-16T09:29:39;12.50;;;6.80;;
2784;SDS011;57944;48.722;9.316;2024-02-16T09:32:10;14.83;;;6.27;;
2784;SDS011;57944;48.722;9.316;2024-02-16T09:34:40;13.00;;;8.63;;
2784;SDS011;57944;48.722;9.316;2024-02-16T09:37:11;15.73;;;7.40;;
2784;SDS011;57944;48.722;9.316;2024-02-16T09:39:43;13.53;;;6.47;;
2784;SDS011;57944;48.722;9.316;2024-02-16T09:42:13;14.87;;;6.00;;
2784;SDS011;57944;48.722;9.316;2024-02-16T09:44:47;10.00;;;6.43;;
2784;SDS011;57944;48.722;9.316;2024-02-16T09:47:18;10.60;;;5.27;;
2784;SDS011;57944;48.722;9.316;2024-02-16T09:49:53;10.87;;;6.33;;
2784;SDS011;57944;48.722;9.316;2024-02-16T09:52:23;11.77;;;6.90;;
2784;SDS011;57944;48.722;9.316;2024-02-16T09:54:54;10.67;;;8.17;;
2784;SDS011;57944;48.722;9.316;2024-02-16T09:57:24;9.70;;;6.33;;
2784;SDS011;57944;48.722;9.316;2024-02-16T09:59:58;14.80;;;7.00;;
2784;SDS011;57944;48.722;9.316;2024-02-16T10:02:40;13.10;;;6.60;;
2784;SDS011;57944;48.722;9.316;2024-02-16T10:05:12;11.70;;;6.73;;
2784;SDS011;57944;48.722;9.316;2024-02-16T10:07:45;9.90;;;6.90;;
2784;SDS011;57944;48.722;9.316;2024-02-16T10:10:20;10.97;;;6.20;;
2784;SDS011;57944;48.722;9.316;2024-02-16T10:13:00;11.40;;;6.60;;
2784;SDS011;57944;48.722;9.316;2024-02-16T10:15:33;8.10;;;6.03;;
2784;SDS011;57944;48.722;9.316;2024-02-16T10:18:04;11.10;;;6.47;;
2784;SDS011;57944;48.722;9.316;2024-02-16T10:20:36;11.47;;;6.27;;
2784;SDS011;57944;48.722;9.316;2024-02-16T10:23:09;12.80;;;5.97;;
2784;SDS011;57944;48.722;9.316;2024-02-16T10:25:40;9.90;;;5.13;;
2784;SDS011;57944;48.722;9.316;2024-02-16T10:28:11;9.13;;;6.07;;
2784;SDS011;57944;48.722;9.316;2024-02-16T10:30:46;12.37;;;7.20;;
2784;SDS011;57944;48.722;9.316;2024-02-16T10:33:18;8.23;;;5.70;;
2784;SDS011;57944;48.722;9.316;2024-02-16T10:35:51;10.53;;;5.40;;
2784;SDS011;57944;48.722;9.316;2024-02-16T10:38:22;10.57;;;5.30;;
2784;SDS011;57944;48.722;9.316;2024-02-16T10:40:53;7.27;;;5.00;;
2784;SDS011;57944;48.722;9.316;2024-02-16T10:43:27;10.57;;;6.00;;
2784;SDS011;57944;48.722;9.316;2024-02-16T10:46:02;9.83;;;5.53;;
2784;SDS011;57944;48.722;9.316;2024-02-16T10:48:36;9.00;;;5.20;;
2784;SDS011;57944;48.722;9.316;2024-02-16T10:51:07;8.10;;;5.70;;
2784;SDS011;57944;48.722;9.316;2024-02-16T10:53:41;7.07;;;4.10;;
2784;SDS011;57944;48.722;9.316;2024-02-16T10:56:13;8.80;;;5.10;;
2784;SDS011;57944;48.722;9.316;2024-02-16T10:58:44;10.00;;;5.50;;
2784;SDS011;57944;48.722;9.316;2024-02-16T11:01:20;9.60;;;5.00;;
2784;SDS011;57944;48.722;9.316;2024-02-16T11:03:59;10.23;;;5.20;;
2784;SDS011;57944;48.722;9.316;2024-02-16T11:06:47;9.23;;;4.90;;
2784;SDS011;57944;48.722;9.316;2024-02-16T11:09:27;17.10;;;5.23;;
2784;SDS011;57944;48.722;9.316;2024-02-16T11:11:58;9.43;;;5.43;;
2784;SDS011;57944;48.722;9.316;2024-02-16T11:14:36;5.67;;;3.80;;
2784;SDS011;57944;48.722;9.316;2024-02-16T11:17:10;5.60;;;2.50;;
2784;SDS011;57944;48.722;9.316;2024-02-16T11:19:41;9.70;;;2.73;;
2784;SDS011;57944;48.722;9.316;2024-02-16T11:22:15;6.20;;;3.70;;
2784;SDS011;57944;48.722;9.316;2024-02-16T11:24:47;6.40;;;2.63;;
2784;SDS011;57944;48.722;9.316;2024-02-16T11:27:20;7.17;;;2.60;;
2784;SDS011;57944;48.722;9.316;2024-02-16T11:29:52;7.10;;;2.60;;
2784;SDS011;57944;48.722;9.316;2024-02-16T11:32:25;5.23;;;3.10;;
2784;SDS011;57944;48.722;9.316;2024-02-16T11:34:55;5.20;;;2.87;;
2784;SDS011;57944;48.722;9.316;2024-02-16T11:37:35;4.10;;;2.20;;
2784;SDS011;57944;48.722;9.316;2024-02-16T11:40:06;5.37;;;2.70;;
2784;SDS011;57944;48.722;9.316;2024-02-16T11:42:40;5.20;;;2.50;;
2784;SDS011;57944;48.722;9.316;2024-02-16T11:45:13;9.20;;;2.67;;
2784;SDS011;57944;48.722;9.316;2024-02-16T11:47:46;6.07;;;2.90;;
2784;SDS011;57944;48.722;9.316;2024-02-16T11:50:18;6.50;;;3.53;;
2784;SDS011;57944;48.722;9.316;2024-02-16T11:52:48;6.47;;;2.97;;
2784;SDS011;57944;48.722;9.316;2024-02-16T11:55:19;5.57;;;2.40;;
2784;SDS011;57944;48.722;9.316;2024-02-16T11:57:49;4.53;;;2.90;;
2784;SDS011;57944;48.722;9.316;2024-02-16T12:00:21;5.60;;;3.50;;
2784;SDS011;57944;48.722;9.316;2024-02-16T12:03:01;6.97;;;2.70;;
2784;SDS011;57944;48.722;9.316;2024-02-16T12:05:32;5.13;;;2.47;;
2784;SDS011;57944;48.722;9.316;2024-02-16T12:08:03;6.10;;;2.80;;
2784;SDS011;57944;48.722;9.316;2024-02-16T12:10:36;4.30;;;3.33;;
2784;SDS011;57944;48.722;9.316;2024-02-16T12:13:06;5.53;;;2.77;;
2784;SDS011;57944;48.722;9.316;2024-02-16T12:15:38;4.50;;;2.87;;
2784;SDS011;57944;48.722;9.316;2024-02-16T12:18:13;7.00;;;2.93;;
2784;SDS011;57944;48.722;9.316;2024-02-16T12:20:59;6.87;;;2.30;;
2784;SDS011;57944;48.722;9.316;2024-02-16T12:23:30;6.20;;;2.33;;
2784;SDS011;57944;48.722;9.316;2024-02-16T12:26:01;8.67;;;3.20;;
2784;SDS011;57944;48.722;9.316;2024-02-16T12:28:32;5.33;;;3.07;;
2784;SDS011;57944;48.722;9.316;2024-02-16T12:31:03;4.30;;;2.53;;
2784;SDS011;57944;48.722;9.316;2024-02-16T12:33:36;4.90;;;2.77;;
2784;SDS011;57944;48.722;9.316;2024-02-16T12:36:07;5.90;;;3.03;;
2784;SDS011;57944;48.722;9.316;2024-02-16T12:38:38;5.57;;;2.40;;
2784;SDS011;57944;48.722;9.316;2024-02-16T12:41:09;6.20;;;2.60;;
2784;SDS011;57944;48.722;9.316;2024-02-16T12:43:40;4.63;;;3.13;;
2784;SDS011;57944;48.722;9.316;2024-02-16T12:46:11;8.73;;;3.03;;
2784;SDS011;57944;48.722;9.316;2024-02-16T12:48:44;5.43;;;2.70;;
2784;SDS011;57944;48.722;9.316;2024-02-16T12:51:16;8.20;;;3.17;;
2784;SDS011;57944;48.722;9.316;2024-02-16T12:53:47;5.43;;;3.27;;
2784;SDS011;57944;48.722;9.316;2024-02-16T12:56:18;4.67;;;2.80;;
2784;SDS011;57944;48.722;9.316;2024-02-16T12:58:49;5.10;;;2.30;;
2784;SDS011;57944;48.722;9.316;2024-02-16T13:01:20;5.40;;;2.70;;
2784;SDS011;57944;48.722;9.316;2024-02-16T13:03:55;7.60;;;2.53;;
2784;SDS011;57944;48.722;9.316;2024-02-16T13:06:25;7.73;;;3.53;;
2784;SDS011;57944;48.722;9.316;2024-02-16T13:08:56;6.43;;;2.90;;
2784;SDS011;57944;48.722;9.316;2024-02-16T13:11:27;5.23;;;3.10;;
2784;SDS011;57944;48.722;9.316;2024-02-16T13:14:00;5.23;;;2.50;;
2784;SDS011;57944;48.722;9.316;2024-02-16T13:16:31;8.03;;;2.73;;
2784;SDS011;57944;48.722;9.316;2024-02-16T13:19:04;10.00;;;2.70;;
2784;SDS011;57944;48.722;9.316;2024-02-16T13:21:35;7.60;;;2.87;;
2784;SDS011;57944;48.722;9.316;2024-02-16T13:24:06;4.00;;;2.17;;
2784;SDS011;57944;48.722;9.316;2024-02-16T13:26:38;5.13;;;2.40;;
2784;SDS011;57944;48.722;9.316;2024-02-16T13:29:08;4.83;;;2.23;;
2784;SDS011;57944;48.722;9.316;2024-02-16T13:31:39;4.50;;;2.63;;
2784;SDS011;57944;48.722;9.316;2024-02-16T13:34:12;4.43;;;2.70;;
2784;SDS011;57944;48.722;9.316;2024-02-16T13:36:43;5.03;;;2.60;;
2784;SDS011;57944;48.722;9.316;2024-02-16T13:39:14;4.70;;;2.80;;
2784;SDS011;57944;48.722;9.316;2024-02-16T13:41:46;10.53;;;4.23;;
2784;SDS011;57944;48.722;9.316;2024-02-16T13:44:17;10.53;;;3.00;;
2784;SDS011;57944;48.722;9.316;2024-02-16T13:46:49;6.20;;;2.83;;
2784;SDS011;57944;48.722;9.316;2024-02-16T13:49:22;8.13;;;3.03;;
2784;SDS011;57944;48.722;9.316;2024-02-16T13:51:53;7.47;;;3.13;;
2784;SDS011;57944;48.722;9.316;2024-02-16T13:54:25;7.90;;;3.63;;
2784;SDS011;57944;48.722;9.316;2024-02-16T13:56:56;6.47;;;2.73;;
2784;SDS011;57944;48.722;9.316;2024-02-16T13:59:26;13.60;;;3.97;;
2784;SDS011;57944;48.722;9.316;2024-02-16T14:01:58;7.80;;;3.50;;
2784;SDS011;57944;48.722;9.316;2024-02-16T14:04:31;6.03;;;3.10;;
2784;SDS011;57944;48.722;9.316;2024-02-16T14:07:06;9.60;;;4.53;;
2784;SDS011;57944;48.722;9.316;2024-02-16T14:09:37;10.80;;;4.10;;
2784;SDS011;57944;48.722;9.316;2024-02-16T14:12:08;8.67;;;5.33;;
2784;SDS011;57944;48.722;9.316;2024-02-16T14:14:39;7.97;;;4.53;;
2784;SDS011;57944;48.722;9.316;2024-02-16T14:17:10;8.97;;;4.60;;
2784;SDS011;57944;48.722;9.316;2024-02-16T14:19:44;10.03;;;5.40;;
2784;SDS011;57944;48.722;9.316;2024-02-16T14:22:14;8.40;;;3.87;;
2784;SDS011;57944;48.722;9.316;2024-02-16T14:24:45;7.37;;;3.73;;
2784;SDS011;57944;48.722;9.316;2024-02-16T14:27:16;6.60;;;4.20;;
2784;SDS011;57944;48.722;9.316;2024-02-16T14:29:47;10.03;;;4.77;;
2784;SDS011;57944;48.722;9.316;2024-02-16T14:32:18;6.80;;;4.63;;
2784;SDS011;57944;48.722;9.316;2024-02-16T14:34:53;8.90;;;3.90;;
2784;SDS011;57944;48.722;9.316;2024-02-16T14:37:23;9.20;;;4.00;;
2784;SDS011;57944;48.722;9.316;2024-02-16T14:39:54;6.23;;;3.60;;
2784;SDS011;57944;48.722;9.316;2024-02-16T14:42:26;6.83;;;3.90;;
2784;SDS011;57944;48.722;9.316;2024-02-16T14:44:57;6.13;;;3.53;;
2784;SDS011;57944;48.722;9.316;2024-02-16T14:47:29;16.10;;;4.30;;
2784;SDS011;57944;48.722;9.316;2024-02-16T14:50:03;8.80;;;4.20;;
2784;SDS011;57944;48.722;9.316;2024-02-16T14:52:35;7.93;;;4.47;;
2784;SDS011;57944;48.722;9.316;2024-02-16T14:55:06;6.53;;;4.27;;
2784;SDS011;57944;48.722;9.316;2024-02-16T14:57:41;10.83;;;4.77;;
2784;SDS011;57944;48.722;9.316;2024-02-16T15:00:12;7.83;;;4.10;;
2784;SDS011;57944;48.722;9.316;2024-02-16T15:02:45;14.17;;;4.40;;
2784;SDS011;57944;48.722;9.316;2024-02-16T15:05:22;7.37;;;4.03;;
2784;SDS011;57944;48.722;9.316;2024-02-16T15:07:53;7.30;;;4.10;;
2784;SDS011;57944;48.722;9.316;2024-02-16T15:10:23;7.30;;;4.30;;
2784;SDS011;57944;48.722;9.316;2024-02-16T15:12:54;10.70;;;4.83;;
2784;SDS011;57944;48.722;9.316;2024-02-16T15:15:24;14.47;;;5.20;;
2784;SDS011;57944;48.722;9.316;2024-02-16T15:17:55;7.77;;;4.70;;
2784;SDS011;57944;48.722;9.316;2024-02-16T15:20:30;8.33;;;5.00;;